LFML/MRS METAR and TAF weather

Enter ICAO airport designator
Station Type Date Time Source
LFML METAR 2019/12/16 03:30 UTC NOAA

LFML 160330Z AUTO 12008KT 9999 BKN024 BKN030 BKN037 14/11 Q1014 BECMG 12015G30KT


Station Type Date Time Source
LFML Decoded METAR 2019/12/16 03:30 UTC NOAA

Marseille / Marignane, France (LFML) 43-27N 005-14E 36M
Dec 15, 2019 - 10:30 PM EST / 2019.12.16 0330 UTC
Wind: from the ESE (120 degrees) at 9 MPH (8 KT):0
Visibility: greater than 7 mile(s):0
Sky conditions: mostly cloudy
Temperature: 57 F (14 C)
Dew Point: 51 F (11 C)
Relative Humidity: 82%
Pressure (altimeter): 29.94 in. Hg (1014 hPa)
ob: LFML 160330Z AUTO 12008KT 9999 BKN024 BKN030 BKN037 14/11 Q1014 BECMG 12015G30KT
cycle: 3

Station Type Date Time Source
LFML TAF 2019/12/16 03:46 UTC NOAA

TAF LFML 160200Z 1603/1709 12015KT 9999 FEW010 BKN035
BECMG 1603/1604 12015G30KT NSC

Example: see airport list